sensor_id;sensor_type;location;lat;lon;timestamp;pressure;altitude;pressure_sealevel;temperature
34125;BMP280;20110;53.120;5.786;2022-12-29T00:02:16;99595.44;;;15.21
34125;BMP280;20110;53.120;5.786;2022-12-29T00:04:42;99639.28;;;15.68
34125;BMP280;20110;53.120;5.786;2022-12-29T00:07:10;99610.00;;;15.82
34125;BMP280;20110;53.120;5.786;2022-12-29T00:09:36;99637.31;;;15.68
34125;BMP280;20110;53.120;5.786;2022-12-29T00:12:04;99643.47;;;15.71
34125;BMP280;20110;53.120;5.786;2022-12-29T00:14:30;99651.69;;;15.85
34125;BMP280;20110;53.120;5.786;2022-12-29T00:17:14;99581.44;;;15.96
34125;BMP280;20110;53.120;5.786;2022-12-29T00:19:40;99614.50;;;15.89
34125;BMP280;20110;53.120;5.786;2022-12-29T00:22:25;99598.50;;;16.12
34125;BMP280;20110;53.120;5.786;2022-12-29T00:25:12;99625.69;;;16.08
34125;BMP280;20110;53.120;5.786;2022-12-29T00:27:57;99631.44;;;16.14
34125;BMP280;20110;53.120;5.786;2022-12-29T00:30:42;99592.91;;;16.08
34125;BMP280;20110;53.120;5.786;2022-12-29T00:33:44;99628.31;;;16.18
34125;BMP280;20110;53.120;5.786;2022-12-29T00:36:36;99617.78;;;15.99
34125;BMP280;20110;53.120;5.786;2022-12-29T00:39:11;99625.44;;;15.93
34125;BMP280;20110;53.120;5.786;2022-12-29T00:42:03;99607.78;;;15.99
34125;BMP280;20110;53.120;5.786;2022-12-29T00:44:47;99584.59;;;16.04
34125;BMP280;20110;53.120;5.786;2022-12-29T00:47:13;99597.72;;;15.88
34125;BMP280;20110;53.120;5.786;2022-12-29T00:49:39;99584.72;;;15.73
34125;BMP280;20110;53.120;5.786;2022-12-29T00:52:09;99625.69;;;16.08
34125;BMP280;20110;53.120;5.786;2022-12-29T00:54:39;99625.47;;;16.04
34125;BMP280;20110;53.120;5.786;2022-12-29T00:57:08;99548.22;;;15.77
34125;BMP280;20110;53.120;5.786;2022-12-29T00:59:39;99584.34;;;16.33
34125;BMP280;20110;53.120;5.786;2022-12-29T01:02:06;99583.66;;;16.32
34125;BMP280;20110;53.120;5.786;2022-12-29T01:04:32;99589.69;;;16.21
34125;BMP280;20110;53.120;5.786;2022-12-29T01:06:58;99598.09;;;16.39
34125;BMP280;20110;53.120;5.786;2022-12-29T01:09:24;99605.13;;;16.55
34125;BMP280;20110;53.120;5.786;2022-12-29T01:12:10;99598.66;;;16.26
34125;BMP280;20110;53.120;5.786;2022-12-29T01:14:38;99568.28;;;16.21
34125;BMP280;20110;53.120;5.786;2022-12-29T01:17:05;99594.81;;;16.29
34125;BMP280;20110;53.120;5.786;2022-12-29T01:19:31;99571.75;;;16.12
34125;BMP280;20110;53.120;5.786;2022-12-29T01:21:57;99595.38;;;16.15
34125;BMP280;20110;53.120;5.786;2022-12-29T01:24:23;99565.00;;;15.90
34125;BMP280;20110;53.120;5.786;2022-12-29T01:26:50;99550.94;;;15.89
34125;BMP280;20110;53.120;5.786;2022-12-29T01:29:17;99563.31;;;16.06
34125;BMP280;20110;53.120;5.786;2022-12-29T01:31:43;99558.44;;;16.02
34125;BMP280;20110;53.120;5.786;2022-12-29T01:34:09;99565.13;;;15.92
34125;BMP280;20110;53.120;5.786;2022-12-29T01:36:34;99571.13;;;16.13
34125;BMP280;20110;53.120;5.786;2022-12-29T01:39:01;99564.38;;;16.01
34125;BMP280;20110;53.120;5.786;2022-12-29T01:41:27;99567.47;;;15.97
34125;BMP280;20110;53.120;5.786;2022-12-29T01:43:58;99563.63;;;15.89
34125;BMP280;20110;53.120;5.786;2022-12-29T01:46:36;99593.66;;;16.20
34125;BMP280;20110;53.120;5.786;2022-12-29T01:51:59;99556.69;;;16.18
34125;BMP280;20110;53.120;5.786;2022-12-29T01:57:06;99553.31;;;16.06
34125;BMP280;20110;53.120;5.786;2022-12-29T01:59:43;99507.13;;;15.73
34125;BMP280;20110;53.120;5.786;2022-12-29T02:02:11;99565.56;;;15.76
34125;BMP280;20110;53.120;5.786;2022-12-29T02:04:41;99586.56;;;15.92
34125;BMP280;20110;53.120;5.786;2022-12-29T02:07:19;99566.09;;;15.75
34125;BMP280;20110;53.120;5.786;2022-12-29T02:09:51;99544.03;;;15.53
34125;BMP280;20110;53.120;5.786;2022-12-29T02:12:20;99573.78;;;15.69
34125;BMP280;20110;53.120;5.786;2022-12-29T02:14:50;99552.31;;;15.78
34125;BMP280;20110;53.120;5.786;2022-12-29T02:17:53;99574.75;;;15.85
34125;BMP280;20110;53.120;5.786;2022-12-29T02:30:11;99552.69;;;15.42
34125;BMP280;20110;53.120;5.786;2022-12-29T02:36:35;99562.69;;;15.63
34125;BMP280;20110;53.120;5.786;2022-12-29T02:39:26;99557.59;;;15.67
34125;BMP280;20110;53.120;5.786;2022-12-29T02:43:05;99549.13;;;15.49
34125;BMP280;20110;53.120;5.786;2022-12-29T02:45:53;99517.34;;;15.44
34125;BMP280;20110;53.120;5.786;2022-12-29T02:48:32;99547.09;;;15.38
34125;BMP280;20110;53.120;5.786;2022-12-29T02:51:12;99514.06;;;15.33
34125;BMP280;20110;53.120;5.786;2022-12-29T02:53:40;99555.63;;;15.25
34125;BMP280;20110;53.120;5.786;2022-12-29T02:56:24;99553.75;;;15.27
34125;BMP280;20110;53.120;5.786;2022-12-29T02:58:50;99476.16;;;14.94
34125;BMP280;20110;53.120;5.786;2022-12-29T03:06:59;99533.94;;;15.21
34125;BMP280;20110;53.120;5.786;2022-12-29T03:21:41;99538.81;;;15.34
34125;BMP280;20110;53.120;5.786;2022-12-29T03:24:32;99518.06;;;15.44
34125;BMP280;20110;53.120;5.786;2022-12-29T03:27:04;99536.44;;;15.71
34125;BMP280;20110;53.120;5.786;2022-12-29T03:29:39;99516.22;;;15.79
34125;BMP280;20110;53.120;5.786;2022-12-29T03:32:09;99475.00;;;15.40
34125;BMP280;20110;53.120;5.786;2022-12-29T03:34:38;99533.59;;;15.90
34125;BMP280;20110;53.120;5.786;2022-12-29T03:37:15;99510.50;;;15.73
34125;BMP280;20110;53.120;5.786;2022-12-29T03:39:42;99510.38;;;15.50
34125;BMP280;20110;53.120;5.786;2022-12-29T03:42:15;99492.50;;;15.31
34125;BMP280;20110;53.120;5.786;2022-12-29T03:44:44;99543.25;;;15.62
34125;BMP280;20110;53.120;5.786;2022-12-29T03:47:12;99560.75;;;15.75
34125;BMP280;20110;53.120;5.786;2022-12-29T03:49:39;99529.56;;;15.68
34125;BMP280;20110;53.120;5.786;2022-12-29T03:52:06;99531.66;;;15.69
34125;BMP280;20110;53.120;5.786;2022-12-29T03:54:32;99538.44;;;15.49
34125;BMP280;20110;53.120;5.786;2022-12-29T03:56:58;99519.50;;;15.35
34125;BMP280;20110;53.120;5.786;2022-12-29T03:59:24;99535.88;;;15.30
34125;BMP280;20110;53.120;5.786;2022-12-29T04:01:50;99555.81;;;15.38
34125;BMP280;20110;53.120;5.786;2022-12-29T04:04:16;99549.13;;;15.28
34125;BMP280;20110;53.120;5.786;2022-12-29T04:06:42;99549.38;;;15.32
34125;BMP280;20110;53.120;5.786;2022-12-29T04:09:09;99502.03;;;15.23
34125;BMP280;20110;53.120;5.786;2022-12-29T04:11:35;99530.78;;;15.13
34125;BMP280;20110;53.120;5.786;2022-12-29T04:14:01;99525.88;;;15.30
34125;BMP280;20110;53.120;5.786;2022-12-29T04:16:27;99443.53;;;14.24
34125;BMP280;20110;53.120;5.786;2022-12-29T04:18:52;99538.31;;;14.95
34125;BMP280;20110;53.120;5.786;2022-12-29T04:21:18;99538.84;;;15.03
34125;BMP280;20110;53.120;5.786;2022-12-29T04:23:44;99530.50;;;15.09
34125;BMP280;20110;53.120;5.786;2022-12-29T04:26:12;99542.56;;;15.19
34125;BMP280;20110;53.120;5.786;2022-12-29T04:28:38;99507.63;;;14.96
34125;BMP280;20110;53.120;5.786;2022-12-29T04:31:04;99488.06;;;15.03
34125;BMP280;20110;53.120;5.786;2022-12-29T04:33:30;99462.44;;;14.79
34125;BMP280;20110;53.120;5.786;2022-12-29T04:35:57;99516.69;;;14.91
34125;BMP280;20110;53.120;5.786;2022-12-29T04:38:24;99517.41;;;14.82
34125;BMP280;20110;53.120;5.786;2022-12-29T04:40:51;99546.25;;;15.14
34125;BMP280;20110;53.120;5.786;2022-12-29T04:43:17;99502.94;;;14.75
34125;BMP280;20110;53.120;5.786;2022-12-29T04:45:46;99538.88;;;15.24
34125;BMP280;20110;53.120;5.786;2022-12-29T04:48:13;99563.34;;;15.21
34125;BMP280;20110;53.120;5.786;2022-12-29T04:50:40;99513.09;;;15.29
34125;BMP280;20110;53.120;5.786;2022-12-29T04:53:06;99519.47;;;14.93
34125;BMP280;20110;53.120;5.786;2022-12-29T04:55:33;99551.50;;;15.33
34125;BMP280;20110;53.120;5.786;2022-12-29T04:57:59;99498.31;;;15.28
34125;BMP280;20110;53.120;5.786;2022-12-29T05:00:25;99555.06;;;15.69
34125;BMP280;20110;53.120;5.786;2022-12-29T05:02:51;99533.00;;;15.59
34125;BMP280;20110;53.120;5.786;2022-12-29T05:05:17;99509.31;;;15.44
34125;BMP280;20110;53.120;5.786;2022-12-29T05:07:44;99558.06;;;15.75
34125;BMP280;20110;53.120;5.786;2022-12-29T05:10:10;99447.31;;;14.93
34125;BMP280;20110;53.120;5.786;2022-12-29T05:12:38;99473.84;;;15.00
34125;BMP280;20110;53.120;5.786;2022-12-29T05:15:06;99570.97;;;15.88
34125;BMP280;20110;53.120;5.786;2022-12-29T05:17:33;99554.03;;;15.86
34125;BMP280;20110;53.120;5.786;2022-12-29T05:19:59;99557.19;;;15.82
34125;BMP280;20110;53.120;5.786;2022-12-29T05:22:25;99591.28;;;15.82
34125;BMP280;20110;53.120;5.786;2022-12-29T05:24:51;99509.59;;;15.48
34125;BMP280;20110;53.120;5.786;2022-12-29T05:27:17;99550.34;;;15.58
34125;BMP280;20110;53.120;5.786;2022-12-29T05:29:43;99582.75;;;15.73
34125;BMP280;20110;53.120;5.786;2022-12-29T05:32:08;99563.19;;;15.71
34125;BMP280;20110;53.120;5.786;2022-12-29T05:34:34;99564.72;;;15.74
34125;BMP280;20110;53.120;5.786;2022-12-29T05:37:00;99549.63;;;15.57
34125;BMP280;20110;53.120;5.786;2022-12-29T05:39:28;99528.38;;;15.59
34125;BMP280;20110;53.120;5.786;2022-12-29T05:41:54;99555.06;;;15.69
34125;BMP280;20110;53.120;5.786;2022-12-29T05:44:20;99514.44;;;15.72
34125;BMP280;20110;53.120;5.786;2022-12-29T05:46:46;99578.78;;;15.74
34125;BMP280;20110;53.120;5.786;2022-12-29T05:49:12;99534.16;;;15.56
34125;BMP280;20110;53.120;5.786;2022-12-29T05:51:38;99457.53;;;14.75
34125;BMP280;20110;53.120;5.786;2022-12-29T05:54:04;99550.28;;;15.46
34125;BMP280;20110;53.120;5.786;2022-12-29T05:56:29;99552.84;;;15.44
34125;BMP280;20110;53.120;5.786;2022-12-29T05:58:55;99550.50;;;15.50
34125;BMP280;20110;53.120;5.786;2022-12-29T06:01:21;99581.41;;;15.63
34125;BMP280;20110;53.120;5.786;2022-12-29T06:03:47;99568.06;;;15.32
34125;BMP280;20110;53.120;5.786;2022-12-29T06:06:13;99582.81;;;15.42
34125;BMP280;20110;53.120;5.786;2022-12-29T06:08:38;99594.91;;;15.44
34125;BMP280;20110;53.120;5.786;2022-12-29T06:11:04;99556.69;;;15.31
34125;BMP280;20110;53.120;5.786;2022-12-29T06:13:30;99505.44;;;15.14
34125;BMP280;20110;53.120;5.786;2022-12-29T06:15:56;99573.00;;;15.35
34125;BMP280;20110;53.120;5.786;2022-12-29T06:18:24;99581.81;;;15.48
34125;BMP280;20110;53.120;5.786;2022-12-29T06:20:50;99611.59;;;15.54
34125;BMP280;20110;53.120;5.786;2022-12-29T06:23:16;99598.59;;;15.38
34125;BMP280;20110;53.120;5.786;2022-12-29T06:25:44;99584.19;;;15.22
34125;BMP280;20110;53.120;5.786;2022-12-29T06:28:10;99554.88;;;15.03
34125;BMP280;20110;53.120;5.786;2022-12-29T06:30:36;99593.81;;;15.37
34125;BMP280;20110;53.120;5.786;2022-12-29T06:33:02;99583.13;;;15.37
34125;BMP280;20110;53.120;5.786;2022-12-29T06:35:28;99557.50;;;15.13
34125;BMP280;20110;53.120;5.786;2022-12-29T06:37:54;99566.44;;;15.27
34125;BMP280;20110;53.120;5.786;2022-12-29T06:40:20;99549.38;;;15.32
34125;BMP280;20110;53.120;5.786;2022-12-29T06:42:47;99561.94;;;15.29
34125;BMP280;20110;53.120;5.786;2022-12-29T06:45:12;99469.81;;;14.38
34125;BMP280;20110;53.120;5.786;2022-12-29T06:47:38;99522.84;;;15.24
34125;BMP280;20110;53.120;5.786;2022-12-29T06:50:05;99523.66;;;14.96
34125;BMP280;20110;53.120;5.786;2022-12-29T06:52:30;99586.31;;;15.24
34125;BMP280;20110;53.120;5.786;2022-12-29T06:54:56;99545.66;;;14.85
34125;BMP280;20110;53.120;5.786;2022-12-29T06:57:22;99534.72;;;14.81
34125;BMP280;20110;53.120;5.786;2022-12-29T06:59:48;99472.84;;;14.84
34125;BMP280;20110;53.120;5.786;2022-12-29T07:02:14;99559.31;;;15.10
34125;BMP280;20110;53.120;5.786;2022-12-29T07:04:42;99516.34;;;14.96
34125;BMP280;20110;53.120;5.786;2022-12-29T07:07:07;99519.84;;;15.30
34125;BMP280;20110;53.120;5.786;2022-12-29T07:09:33;99514.59;;;15.53
34125;BMP280;20110;53.120;5.786;2022-12-29T07:11:59;99525.63;;;15.05
34125;BMP280;20110;53.120;5.786;2022-12-29T07:14:25;99561.47;;;15.33
34125;BMP280;20110;53.120;5.786;2022-12-29T07:16:51;99558.44;;;15.48
34125;BMP280;20110;53.120;5.786;2022-12-29T07:19:16;99575.63;;;15.88
34125;BMP280;20110;53.120;5.786;2022-12-29T07:21:42;99600.78;;;15.73
34125;BMP280;20110;53.120;5.786;2022-12-29T07:24:09;99537.91;;;15.41
34125;BMP280;20110;53.120;5.786;2022-12-29T07:26:35;99582.97;;;15.45
34125;BMP280;20110;53.120;5.786;2022-12-29T07:29:03;99588.84;;;15.43
34125;BMP280;20110;53.120;5.786;2022-12-29T07:31:29;99569.59;;;15.45
34125;BMP280;20110;53.120;5.786;2022-12-29T07:33:55;99597.06;;;15.35
34125;BMP280;20110;53.120;5.786;2022-12-29T07:36:20;99499.56;;;15.06
34125;BMP280;20110;53.120;5.786;2022-12-29T07:38:46;99606.94;;;15.54
34125;BMP280;20110;53.120;5.786;2022-12-29T07:41:12;99574.66;;;15.62
34125;BMP280;20110;53.120;5.786;2022-12-29T07:43:38;99612.28;;;15.75
34125;BMP280;20110;53.120;5.786;2022-12-29T07:46:04;99582.50;;;15.48
34125;BMP280;20110;53.120;5.786;2022-12-29T07:48:30;99591.81;;;15.47
34125;BMP280;20110;53.120;5.786;2022-12-29T07:50:56;99632.88;;;15.94
34125;BMP280;20110;53.120;5.786;2022-12-29T07:53:22;99628.34;;;15.97
34125;BMP280;20110;53.120;5.786;2022-12-29T07:55:48;99592.13;;;15.84
34125;BMP280;20110;53.120;5.786;2022-12-29T07:58:14;99617.19;;;16.00
34125;BMP280;20110;53.120;5.786;2022-12-29T08:00:39;99602.66;;;16.03
34125;BMP280;20110;53.120;5.786;2022-12-29T08:03:14;99609.78;;;16.10
34125;BMP280;20110;53.120;5.786;2022-12-29T08:05:40;99559.53;;;15.55
34125;BMP280;20110;53.120;5.786;2022-12-29T08:08:05;99591.84;;;15.80
34125;BMP280;20110;53.120;5.786;2022-12-29T08:10:31;99616.00;;;15.70
34125;BMP280;20110;53.120;5.786;2022-12-29T08:12:57;99627.59;;;15.85
34125;BMP280;20110;53.120;5.786;2022-12-29T08:15:23;99631.56;;;15.84
34125;BMP280;20110;53.120;5.786;2022-12-29T08:17:49;99540.00;;;15.42
34125;BMP280;20110;53.120;5.786;2022-12-29T08:20:15;99576.06;;;15.63
34125;BMP280;20110;53.120;5.786;2022-12-29T08:22:41;99607.16;;;15.89
34125;BMP280;20110;53.120;5.786;2022-12-29T08:25:07;99605.13;;;15.78
34125;BMP280;20110;53.120;5.786;2022-12-29T08:27:33;99605.22;;;15.80
34125;BMP280;20110;53.120;5.786;2022-12-29T08:29:59;99615.13;;;15.77
34125;BMP280;20110;53.120;5.786;2022-12-29T08:32:27;99612.22;;;15.85
34125;BMP280;20110;53.120;5.786;2022-12-29T08:34:54;99500.97;;;15.07
34125;BMP280;20110;53.120;5.786;2022-12-29T08:37:20;99602.13;;;15.62
34125;BMP280;20110;53.120;5.786;2022-12-29T08:39:46;99555.06;;;15.69
34125;BMP280;20110;53.120;5.786;2022-12-29T08:42:11;99609.25;;;15.91
34125;BMP280;20110;53.120;5.786;2022-12-29T08:44:37;99650.41;;;15.86
34125;BMP280;20110;53.120;5.786;2022-12-29T08:47:03;99632.88;;;15.73
34125;BMP280;20110;53.120;5.786;2022-12-29T08:49:29;99560.47;;;15.07
34125;BMP280;20110;53.120;5.786;2022-12-29T08:51:55;99585.34;;;15.19
34125;BMP280;20110;53.120;5.786;2022-12-29T08:54:21;99653.50;;;15.39
34125;BMP280;20110;53.120;5.786;2022-12-29T08:56:47;99599.88;;;15.37
34125;BMP280;20110;53.120;5.786;2022-12-29T08:59:13;99609.97;;;15.18
34125;BMP280;20110;53.120;5.786;2022-12-29T09:01:38;99608.34;;;15.34
34125;BMP280;20110;53.120;5.786;2022-12-29T09:04:06;99632.44;;;15.34
34125;BMP280;20110;53.120;5.786;2022-12-29T09:06:32;99610.94;;;15.22
34125;BMP280;20110;53.120;5.786;2022-12-29T09:08:59;99645.28;;;15.47
34125;BMP280;20110;53.120;5.786;2022-12-29T09:11:25;99619.63;;;15.54
34125;BMP280;20110;53.120;5.786;2022-12-29T09:13:53;99579.94;;;15.50
34125;BMP280;20110;53.120;5.786;2022-12-29T09:16:23;99653.50;;;15.61
34125;BMP280;20110;53.120;5.786;2022-12-29T09:18:49;99579.00;;;15.46
34125;BMP280;20110;53.120;5.786;2022-12-29T09:21:15;99648.88;;;15.61
34125;BMP280;20110;53.120;5.786;2022-12-29T09:23:41;99635.66;;;15.75
34125;BMP280;20110;53.120;5.786;2022-12-29T09:26:08;99594.63;;;15.18
34125;BMP280;20110;53.120;5.786;2022-12-29T09:28:34;99625.50;;;15.31
34125;BMP280;20110;53.120;5.786;2022-12-29T09:31:01;99624.19;;;15.41
34125;BMP280;20110;53.120;5.786;2022-12-29T09:33:27;99641.59;;;15.21
34125;BMP280;20110;53.120;5.786;2022-12-29T09:35:56;99609.56;;;15.12
34125;BMP280;20110;53.120;5.786;2022-12-29T09:38:24;99642.84;;;14.89
34125;BMP280;20110;53.120;5.786;2022-12-29T09:41:14;99672.69;;;14.66
34125;BMP280;20110;53.120;5.786;2022-12-29T09:43:52;99693.66;;;14.70
34125;BMP280;20110;53.120;5.786;2022-12-29T09:46:34;99689.16;;;14.44
34125;BMP280;20110;53.120;5.786;2022-12-29T09:51:51;99696.06;;;14.37
34125;BMP280;20110;53.120;5.786;2022-12-29T09:56:59;99734.69;;;14.46
34125;BMP280;20110;53.120;5.786;2022-12-29T09:59:40;99743.97;;;14.54
34125;BMP280;20110;53.120;5.786;2022-12-29T10:02:29;99727.97;;;14.64
34125;BMP280;20110;53.120;5.786;2022-12-29T10:04:57;99763.81;;;14.71
34125;BMP280;20110;53.120;5.786;2022-12-29T10:07:36;99746.22;;;14.77
34125;BMP280;20110;53.120;5.786;2022-12-29T10:10:20;99696.59;;;14.36
34125;BMP280;20110;53.120;5.786;2022-12-29T10:18:52;99795.81;;;15.38
34125;BMP280;20110;53.120;5.786;2022-12-29T10:24:07;99785.44;;;15.73
34125;BMP280;20110;53.120;5.786;2022-12-29T10:26:44;99778.59;;;15.91
34125;BMP280;20110;53.120;5.786;2022-12-29T10:29:22;99788.84;;;15.95
34125;BMP280;20110;53.120;5.786;2022-12-29T10:32:01;99808.66;;;16.11
34125;BMP280;20110;53.120;5.786;2022-12-29T10:34:42;99823.44;;;16.12
34125;BMP280;20110;53.120;5.786;2022-12-29T10:39:53;99825.50;;;16.44
34125;BMP280;20110;53.120;5.786;2022-12-29T10:42:41;99812.63;;;16.31
34125;BMP280;20110;53.120;5.786;2022-12-29T10:45:14;99831.03;;;16.37
34125;BMP280;20110;53.120;5.786;2022-12-29T10:47:55;99833.13;;;16.38
34125;BMP280;20110;53.120;5.786;2022-12-29T10:50:25;99846.81;;;16.42
34125;BMP280;20110;53.120;5.786;2022-12-29T10:52:54;99832.50;;;16.49
34125;BMP280;20110;53.120;5.786;2022-12-29T10:55:32;99828.75;;;16.43
34125;BMP280;20110;53.120;5.786;2022-12-29T10:58:05;99814.78;;;16.44
34125;BMP280;20110;53.120;5.786;2022-12-29T11:00:33;99844.78;;;16.52
34125;BMP280;20110;53.120;5.786;2022-12-29T11:06:03;99800.66;;;16.65
34125;BMP280;20110;53.120;5.786;2022-12-29T11:08:40;99846.16;;;16.75
34125;BMP280;20110;53.120;5.786;2022-12-29T11:11:11;99805.91;;;16.42
34125;BMP280;20110;53.120;5.786;2022-12-29T11:13:56;99845.56;;;16.98
34125;BMP280;20110;53.120;5.786;2022-12-29T11:16:33;99871.78;;;16.99
34125;BMP280;20110;53.120;5.786;2022-12-29T11:19:01;99855.53;;;16.85
34125;BMP280;20110;53.120;5.786;2022-12-29T11:21:37;99890.56;;;16.99
34125;BMP280;20110;53.120;5.786;2022-12-29T11:24:28;99898.56;;;16.87
34125;BMP280;20110;53.120;5.786;2022-12-29T11:27:13;99879.47;;;16.50
34125;BMP280;20110;53.120;5.786;2022-12-29T11:29:43;99910.06;;;17.11
34125;BMP280;20110;53.120;5.786;2022-12-29T11:32:20;99906.13;;;17.45
34125;BMP280;20110;53.120;5.786;2022-12-29T11:34:47;99874.44;;;17.20
34125;BMP280;20110;53.120;5.786;2022-12-29T11:37:31;99893.50;;;17.03
34125;BMP280;20110;53.120;5.786;2022-12-29T11:40:18;99935.63;;;17.12
34125;BMP280;20110;53.120;5.786;2022-12-29T11:43:03;99945.25;;;17.27
34125;BMP280;20110;53.120;5.786;2022-12-29T11:45:34;99935.56;;;17.22
34125;BMP280;20110;53.120;5.786;2022-12-29T11:48:20;99957.22;;;16.93
34125;BMP280;20110;53.120;5.786;2022-12-29T11:50:53;99954.47;;;17.03
34125;BMP280;20110;53.120;5.786;2022-12-29T11:53:25;99957.78;;;17.13
34125;BMP280;20110;53.120;5.786;2022-12-29T11:56:00;99957.47;;;17.51
34125;BMP280;20110;53.120;5.786;2022-12-29T11:58:32;99978.31;;;17.74
34125;BMP280;20110;53.120;5.786;2022-12-29T12:01:18;99959.41;;;17.84
34125;BMP280;20110;53.120;5.786;2022-12-29T12:04:03;99964.88;;;17.86
34125;BMP280;20110;53.120;5.786;2022-12-29T12:06:34;99936.47;;;17.59
34125;BMP280;20110;53.120;5.786;2022-12-29T12:09:23;99978.34;;;17.97
34125;BMP280;20110;53.120;5.786;2022-12-29T12:11:54;99983.34;;;17.91
34125;BMP280;20110;53.120;5.786;2022-12-29T12:14:40;99993.06;;;17.96
34125;BMP280;20110;53.120;5.786;2022-12-29T12:17:18;99966.84;;;17.74
34125;BMP280;20110;53.120;5.786;2022-12-29T12:20:03;99979.94;;;17.67
34125;BMP280;20110;53.120;5.786;2022-12-29T12:22:37;99999.56;;;17.82
34125;BMP280;20110;53.120;5.786;2022-12-29T12:28:50;100002.53;;;17.97
34125;BMP280;20110;53.120;5.786;2022-12-29T12:31:45;99999.53;;;17.37
34125;BMP280;20110;53.120;5.786;2022-12-29T12:34:27;99978.91;;;16.76
34125;BMP280;20110;53.120;5.786;2022-12-29T12:37:23;100019.59;;;16.63
34125;BMP280;20110;53.120;5.786;2022-12-29T12:42:58;100037.84;;;16.54
34125;BMP280;20110;53.120;5.786;2022-12-29T12:46:07;99992.00;;;16.20
34125;BMP280;20110;53.120;5.786;2022-12-29T12:49:11;100032.59;;;16.16
34125;BMP280;20110;53.120;5.786;2022-12-29T12:54:52;100048.53;;;16.04
34125;BMP280;20110;53.120;5.786;2022-12-29T12:57:56;100042.66;;;15.77
34125;BMP280;20110;53.120;5.786;2022-12-29T13:00:24;100031.25;;;15.76
34125;BMP280;20110;53.120;5.786;2022-12-29T13:06:59;100035.16;;;15.85
34125;BMP280;20110;53.120;5.786;2022-12-29T13:12:10;100052.09;;;15.68
34125;BMP280;20110;53.120;5.786;2022-12-29T13:20:25;100063.03;;;16.21
34125;BMP280;20110;53.120;5.786;2022-12-29T13:23:12;100064.44;;;16.31
34125;BMP280;20110;53.120;5.786;2022-12-29T13:26:45;100035.06;;;16.43
34125;BMP280;20110;53.120;5.786;2022-12-29T13:29:26;100075.69;;;16.39
34125;BMP280;20110;53.120;5.786;2022-12-29T13:37:52;100081.34;;;16.34
34125;BMP280;20110;53.120;5.786;2022-12-29T13:40:25;100069.75;;;16.41
34125;BMP280;20110;53.120;5.786;2022-12-29T13:42:56;100095.69;;;16.38
34125;BMP280;20110;53.120;5.786;2022-12-29T13:45:26;100074.00;;;16.34
34125;BMP280;20110;53.120;5.786;2022-12-29T13:48:06;100043.19;;;15.85
34125;BMP280;20110;53.120;5.786;2022-12-29T13:50:38;100087.88;;;15.92
34125;BMP280;20110;53.120;5.786;2022-12-29T13:56:54;100085.84;;;15.54
34125;BMP280;20110;53.120;5.786;2022-12-29T13:59:54;100106.84;;;15.58
34125;BMP280;20110;53.120;5.786;2022-12-29T14:07:44;100097.09;;;15.43
34125;BMP280;20110;53.120;5.786;2022-12-29T14:10:36;100071.38;;;15.11
34125;BMP280;20110;53.120;5.786;2022-12-29T14:13:18;100101.88;;;15.25
34125;BMP280;20110;53.120;5.786;2022-12-29T14:15:53;100101.69;;;15.14
34125;BMP280;20110;53.120;5.786;2022-12-29T14:18:23;100054.59;;;14.64
34125;BMP280;20110;53.120;5.786;2022-12-29T14:20:56;100084.94;;;14.86
34125;BMP280;20110;53.120;5.786;2022-12-29T14:23:47;100033.41;;;14.76
34125;BMP280;20110;53.120;5.786;2022-12-29T14:26:16;100112.69;;;15.27
34125;BMP280;20110;53.120;5.786;2022-12-29T14:28:47;100119.56;;;15.30
34125;BMP280;20110;53.120;5.786;2022-12-29T14:37:00;100086.44;;;15.07
34125;BMP280;20110;53.120;5.786;2022-12-29T14:39:38;100098.44;;;15.15
34125;BMP280;20110;53.120;5.786;2022-12-29T14:45:27;100134.00;;;15.35
34125;BMP280;20110;53.120;5.786;2022-12-29T14:47:53;100092.69;;;15.28
34125;BMP280;20110;53.120;5.786;2022-12-29T14:50:24;100126.91;;;15.30
34125;BMP280;20110;53.120;5.786;2022-12-29T14:52:57;100098.84;;;15.12
34125;BMP280;20110;53.120;5.786;2022-12-29T14:55:47;100127.75;;;15.32
34125;BMP280;20110;53.120;5.786;2022-12-29T14:58:23;100107.34;;;15.27
34125;BMP280;20110;53.120;5.786;2022-12-29T15:00:52;100117.63;;;15.40
34125;BMP280;20110;53.120;5.786;2022-12-29T15:03:57;100122.41;;;15.32
34125;BMP280;20110;53.120;5.786;2022-12-29T15:06:28;100114.84;;;15.02
34125;BMP280;20110;53.120;5.786;2022-12-29T15:11:58;100133.81;;;14.96
34125;BMP280;20110;53.120;5.786;2022-12-29T15:14:33;100133.53;;;14.92
34125;BMP280;20110;53.120;5.786;2022-12-29T15:17:01;100101.34;;;14.73
34125;BMP280;20110;53.120;5.786;2022-12-29T15:19:27;100126.56;;;14.80
34125;BMP280;20110;53.120;5.786;2022-12-29T15:21:55;100113.25;;;14.62
34125;BMP280;20110;53.120;5.786;2022-12-29T15:24:23;100127.69;;;14.86
34125;BMP280;20110;53.120;5.786;2022-12-29T15:26:52;100123.38;;;14.91
34125;BMP280;20110;53.120;5.786;2022-12-29T15:29:41;100149.59;;;15.02
34125;BMP280;20110;53.120;5.786;2022-12-29T15:34:44;100169.25;;;14.97
34125;BMP280;20110;53.120;5.786;2022-12-29T15:37:22;100179.34;;;14.89
34125;BMP280;20110;53.120;5.786;2022-12-29T15:39:50;100130.56;;;14.27
34125;BMP280;20110;53.120;5.786;2022-12-29T15:44:51;100148.16;;;14.30
34125;BMP280;20110;53.120;5.786;2022-12-29T15:47:29;100117.97;;;13.85
34125;BMP280;20110;53.120;5.786;2022-12-29T15:50:24;100174.22;;;14.05
34125;BMP280;20110;53.120;5.786;2022-12-29T15:52:51;100178.34;;;13.98
34125;BMP280;20110;53.120;5.786;2022-12-29T15:55:33;100163.19;;;13.83
34125;BMP280;20110;53.120;5.786;2022-12-29T15:58:03;100154.25;;;13.64
34125;BMP280;20110;53.120;5.786;2022-12-29T16:00:33;100155.38;;;13.61
34125;BMP280;20110;53.120;5.786;2022-12-29T16:03:03;100167.81;;;13.58
34125;BMP280;20110;53.120;5.786;2022-12-29T16:05:38;100150.28;;;13.47
34125;BMP280;20110;53.120;5.786;2022-12-29T16:08:35;100153.91;;;13.35
34125;BMP280;20110;53.120;5.786;2022-12-29T16:11:22;100148.13;;;13.29
34125;BMP280;20110;53.120;5.786;2022-12-29T16:13:52;100117.44;;;13.12
34125;BMP280;20110;53.120;5.786;2022-12-29T16:16:36;100132.16;;;13.21
34125;BMP280;20110;53.120;5.786;2022-12-29T16:19:21;100154.19;;;13.46
34125;BMP280;20110;53.120;5.786;2022-12-29T16:21:50;100163.41;;;13.53
34125;BMP280;20110;53.120;5.786;2022-12-29T16:24:22;100170.47;;;13.58
34125;BMP280;20110;53.120;5.786;2022-12-29T16:29:35;100161.91;;;13.60